createdAt,value
2022-10-04T00:02:48.318Z,98544.75
2022-10-04T00:05:55.976Z,98557.72
2022-10-04T00:09:02.241Z,98552.22
2022-10-04T00:12:06.824Z,98547.00
2022-10-04T00:15:22.030Z,98537.94
2022-10-04T00:18:33.012Z,98543.44
2022-10-04T00:22:12.711Z,98541.00
2022-10-04T00:25:21.745Z,98535.50
2022-10-04T00:28:44.131Z,98527.22
2022-10-04T00:32:27.953Z,98532.22
2022-10-04T00:35:51.383Z,98527.88
2022-10-04T00:39:15.999Z,98525.13
2022-10-04T00:42:36.002Z,98531.44
2022-10-04T00:45:44.533Z,98534.50
2022-10-04T00:48:51.269Z,98533.38
2022-10-04T00:51:59.431Z,98525.44
2022-10-04T00:55:08.799Z,98536.44
2022-10-04T00:58:20.049Z,98537.88
2022-10-04T01:01:27.498Z,98518.28
2022-10-04T01:04:43.859Z,98522.97
2022-10-04T01:07:53.228Z,98524.63
2022-10-04T01:11:00.301Z,98517.47
2022-10-04T01:14:10.348Z,98511.16
2022-10-04T01:17:14.097Z,98510.34
2022-10-04T01:20:36.226Z,98515.84
2022-10-04T01:23:43.764Z,98497.69
2022-10-04T01:26:47.571Z,98507.88
2022-10-04T01:29:51.866Z,98483.91
2022-10-04T01:32:55.023Z,98508.69
2022-10-04T01:35:58.591Z,98502.69
2022-10-04T01:39:04.394Z,98512.91
2022-10-04T01:42:17.138Z,98493.28
2022-10-04T01:45:25.590Z,98485.34
2022-10-04T01:48:36.324Z,98487.78
2022-10-04T01:51:45.567Z,98492.78
2022-10-04T01:54:54.621Z,98501.88
2022-10-04T01:58:03.788Z,98483.72
2022-10-04T02:01:20.907Z,98489.22
2022-10-04T02:04:30.130Z,98485.66
2022-10-04T02:07:36.465Z,98493.91
2022-10-04T02:10:43.741Z,98495.88
2022-10-04T02:13:51.575Z,98506.88
2022-10-04T02:16:55.019Z,98506.38
2022-10-04T02:19:59.790Z,98508.00
2022-10-04T02:23:03.449Z,98515.97
2022-10-04T02:26:11.135Z,98512.69
2022-10-04T02:29:16.493Z,98508.81
2022-10-04T02:32:37.716Z,98514.34
2022-10-04T02:35:46.543Z,98504.44
2022-10-04T02:38:58.528Z,98511.56
2022-10-04T02:42:10.538Z,98516.28
2022-10-04T02:45:22.339Z,98518.22
2022-10-04T02:48:37.805Z,98513.81
2022-10-04T02:51:46.957Z,98513.81
2022-10-04T02:54:56.937Z,98517.41
2022-10-04T02:58:02.402Z,98515.47
2022-10-04T03:01:06.309Z,98515.47
2022-10-04T03:04:13.756Z,98519.34
2022-10-04T03:07:17.689Z,98518.53
2022-10-04T03:10:22.264Z,98506.72
2022-10-04T03:13:28.208Z,98512.22
2022-10-04T03:16:37.151Z,98512.22
2022-10-04T03:19:40.333Z,98514.16
2022-10-04T03:22:47.415Z,98521.63
2022-10-04T03:25:59.099Z,98514.78
2022-10-04T03:29:09.580Z,98525.19
2022-10-04T03:32:22.823Z,98527.94
2022-10-04T03:35:34.012Z,98524.38
2022-10-04T03:38:37.981Z,98521.63
2022-10-04T03:41:43.566Z,98524.84
2022-10-04T03:44:51.363Z,98523.25
2022-10-04T03:47:59.573Z,98528.75
2022-10-04T03:51:06.215Z,98530.69
2022-10-04T03:54:15.560Z,98533.44
2022-10-04T03:57:19.258Z,98527.13
2022-10-04T04:00:24.034Z,98538.16
2022-10-04T04:03:30.992Z,98540.72
2022-10-04T04:06:43.543Z,98538.16
2022-10-04T04:09:52.826Z,98540.91
2022-10-04T04:13:00.790Z,98544.78
2022-10-04T04:16:06.903Z,98540.91
2022-10-04T04:19:14.797Z,98530.19
2022-10-04T04:22:20.233Z,98535.69
2022-10-04T04:25:26.902Z,98545.91
2022-10-04T04:28:36.631Z,98553.03
2022-10-04T04:31:46.205Z,98559.69
2022-10-04T04:34:53.086Z,98559.69
2022-10-04T04:38:20.436Z,98565.19
2022-10-04T04:41:25.521Z,98557.75
2022-10-04T04:44:29.018Z,98556.94
2022-10-04T04:47:40.140Z,98562.44
2022-10-04T04:50:44.099Z,98569.88
2022-10-04T04:53:48.705Z,98577.03
2022-10-04T04:56:54.063Z,98582.84
2022-10-04T05:00:01.423Z,98583.66
2022-10-04T05:03:13.995Z,98585.59
2022-10-04T05:06:26.781Z,98585.59
2022-10-04T05:09:33.529Z,98598.56
2022-10-04T05:12:36.745Z,98601.00
2022-10-04T05:15:42.293Z,98603.75
2022-10-04T05:18:47.577Z,98599.38
2022-10-04T05:21:54.297Z,98601.31
2022-10-04T05:25:02.740Z,98602.94
2022-10-04T05:28:06.422Z,98599.38
2022-10-04T05:31:32.649Z,98609.56
2022-10-04T05:34:41.545Z,98615.09
2022-10-04T05:38:04.406Z,98621.41
2022-10-04T05:41:10.594Z,98622.53
2022-10-04T05:44:27.561Z,98632.44
2022-10-04T05:47:32.049Z,98631.59
2022-10-04T05:50:40.711Z,98632.53
2022-10-04T05:53:44.197Z,98640.69
2022-10-04T05:57:33.267Z,98643.75
2022-10-04T06:00:46.163Z,98641.81
2022-10-04T06:04:12.801Z,98650.88
2022-10-04T06:07:26.745Z,98671.00
2022-10-04T06:10:48.934Z,98663.84
2022-10-04T06:14:16.029Z,98672.13
2022-10-04T06:17:45.083Z,98663.84
2022-10-04T06:21:18.098Z,98672.13
2022-10-04T06:24:27.252Z,98686.69
2022-10-04T06:27:36.003Z,98683.63
2022-10-04T06:30:57.357Z,98674.56
2022-10-04T06:34:35.801Z,98681.19
2022-10-04T06:38:08.159Z,98686.69
2022-10-04T06:41:41.813Z,98693.03
2022-10-04T06:45:12.411Z,98693.84
2022-10-04T06:49:19.016Z,98700.97
2022-10-04T06:52:58.526Z,98709.75
2022-10-04T06:56:36.878Z,98714.25
2022-10-04T07:00:04.816Z,98721.97
2022-10-04T07:03:16.529Z,98725.34
2022-10-04T07:06:26.978Z,98726.97
2022-10-04T07:09:30.867Z,98730.75
2022-10-04T07:12:41.498Z,98728.91
2022-10-04T07:15:53.671Z,98737.38
2022-10-04T07:19:15.151Z,98736.25
2022-10-04T07:22:28.530Z,98740.72
2022-10-04T07:25:37.538Z,98740.53
2022-10-04T07:29:01.250Z,98753.47
2022-10-04T07:32:15.409Z,98754.09
2022-10-04T07:35:35.388Z,98748.47
2022-10-04T07:38:47.409Z,98757.22
2022-10-04T07:41:54.555Z,98761.25
2022-10-04T07:45:11.433Z,98769.63
2022-10-04T07:48:19.837Z,98767.69
2022-10-04T07:51:33.862Z,98759.72
2022-10-04T07:54:44.253Z,98764.72
2022-10-04T07:57:59.229Z,98768.06
2022-10-04T08:01:09.795Z,98770.75
2022-10-04T08:04:33.408Z,98769.00
2022-10-04T08:07:54.997Z,98794.81
2022-10-04T08:11:26.221Z,98790.53
2022-10-04T08:14:53.137Z,98785.72
2022-10-04T08:18:07.075Z,98791.94
2022-10-04T08:21:18.835Z,98807.59
2022-10-04T08:24:31.317Z,98807.69
2022-10-04T08:28:18.948Z,98807.19
2022-10-04T08:31:34.724Z,98828.00
2022-10-04T08:35:01.838Z,98811.78
2022-10-04T08:38:43.178Z,98810.97
2022-10-04T08:42:41.843Z,98815.88
2022-10-04T08:46:11.652Z,98815.06
2022-10-04T08:49:59.360Z,98815.56
2022-10-04T08:54:22.600Z,98824.00
2022-10-04T08:57:49.465Z,98830.84
2022-10-04T09:01:20.629Z,98825.13
2022-10-04T09:04:58.308Z,98837.19
2022-10-04T09:09:01.640Z,98833.00
2022-10-04T09:12:35.318Z,98834.63
2022-10-04T09:15:54.269Z,98823.94
2022-10-04T09:19:22.118Z,98835.75
2022-10-04T09:22:47.938Z,98846.47
2022-10-04T09:26:11.387Z,98850.34
2022-10-04T09:29:32.854Z,98848.94
2022-10-04T09:33:15.339Z,98854.75
2022-10-04T09:36:41.551Z,98855.25
2022-10-04T09:40:06.555Z,98862.50
2022-10-04T09:44:13.773Z,98865.47
2022-10-04T09:47:37.527Z,98856.69
2022-10-04T09:51:26.108Z,98870.25
2022-10-04T09:54:56.743Z,98864.88
2022-10-04T09:58:29.447Z,98881.78
2022-10-04T10:01:44.867Z,98881.19
2022-10-04T10:05:00.049Z,98883.00
2022-10-04T10:08:16.234Z,98886.19
2022-10-04T10:11:48.149Z,98898.84
2022-10-04T10:15:19.183Z,98901.59
2022-10-04T10:18:39.789Z,98896.28
2022-10-04T10:21:59.653Z,98905.25
2022-10-04T10:25:14.253Z,98894.34
2022-10-04T10:28:41.183Z,98910.06
2022-10-04T10:32:01.385Z,98918.34
2022-10-04T10:35:49.849Z,98923.84
2022-10-04T10:39:17.961Z,98923.84
2022-10-04T10:43:00.850Z,98923.03
2022-10-04T10:46:20.231Z,98930.19
2022-10-04T10:49:42.123Z,98915.06
2022-10-04T10:53:17.433Z,98928.53
2022-10-04T10:56:44.603Z,98933.25
2022-10-04T11:00:20.976Z,98931.59
2022-10-04T11:04:24.560Z,98933.25
2022-10-04T11:07:50.206Z,98934.06
2022-10-04T11:11:31.643Z,98938.75
2022-10-04T11:15:02.699Z,98946.72
2022-10-04T11:18:30.150Z,98943.84
2022-10-04T11:22:16.862Z,98949.34
